createdAt,value
2017-06-23T00:02:05.201Z,72.20
2017-06-23T00:04:32.698Z,72.00
2017-06-23T00:07:00.266Z,72.00
2017-06-23T00:09:28.224Z,71.60
2017-06-23T00:11:56.193Z,71.60
2017-06-23T00:14:24.085Z,71.60
2017-06-23T00:16:51.570Z,71.50
2017-06-23T00:19:19.106Z,71.70
2017-06-23T00:21:46.634Z,71.70
2017-06-23T00:24:14.603Z,71.40
2017-06-23T00:26:42.569Z,71.50
2017-06-23T00:29:10.541Z,71.30
2017-06-23T00:31:38.510Z,71.20
2017-06-23T00:34:06.477Z,71.60
2017-06-23T00:36:34.446Z,71.40
2017-06-23T00:39:02.411Z,71.50
2017-06-23T00:41:30.381Z,71.50
2017-06-23T00:44:00.234Z,71.60
2017-06-23T00:46:27.709Z,71.60
2017-06-23T00:48:55.202Z,71.40
2017-06-23T00:51:23.614Z,71.70
2017-06-23T00:53:52.061Z,71.60
2017-06-23T00:56:20.997Z,71.30
2017-06-23T00:58:48.513Z,71.30
2017-06-23T01:01:16.481Z,71.30
2017-06-23T01:03:44.454Z,71.30
2017-06-23T01:06:12.421Z,71.50
2017-06-23T01:08:40.381Z,71.40
2017-06-23T01:11:07.857Z,71.30
2017-06-23T01:13:35.818Z,71.30
2017-06-23T01:16:03.802Z,71.20
2017-06-23T01:18:31.337Z,71.20
2017-06-23T01:20:59.209Z,71.20
2017-06-23T01:23:27.121Z,71.10
2017-06-23T01:25:54.624Z,71.10
2017-06-23T01:28:22.594Z,71.20
2017-06-23T01:30:50.470Z,71.30
2017-06-23T01:33:18.374Z,71.50
2017-06-23T01:35:45.885Z,71.50
2017-06-23T01:38:13.790Z,71.40
2017-06-23T01:40:41.310Z,71.40
2017-06-23T01:43:09.210Z,71.50
2017-06-23T01:45:37.894Z,71.50
2017-06-23T01:48:05.374Z,71.50
2017-06-23T01:50:32.853Z,71.40
2017-06-23T01:53:00.363Z,71.50
2017-06-23T01:55:28.817Z,71.30
2017-06-23T01:57:56.705Z,71.70
2017-06-23T02:00:24.233Z,71.70
2017-06-23T02:02:53.329Z,71.30
2017-06-23T02:05:21.206Z,71.20
2017-06-23T02:07:49.165Z,71.00
2017-06-23T02:10:17.133Z,71.30
2017-06-23T02:12:45.009Z,71.00
2017-06-23T02:15:12.897Z,70.90
2017-06-23T02:17:40.382Z,70.90
2017-06-23T02:20:07.978Z,70.90
2017-06-23T02:22:35.949Z,70.90
2017-06-23T02:25:04.124Z,70.80
2017-06-23T02:27:32.913Z,70.90
2017-06-23T02:30:00.785Z,70.90
2017-06-23T02:32:28.746Z,71.10
2017-06-23T02:34:56.717Z,71.10
2017-06-23T02:37:24.684Z,71.10
2017-06-23T02:39:52.555Z,71.20
2017-06-23T02:42:21.136Z,71.20
2017-06-23T02:44:49.003Z,71.10
2017-06-23T02:47:16.875Z,71.30
2017-06-23T02:49:44.837Z,71.40
2017-06-23T02:52:12.797Z,71.60
2017-06-23T02:54:40.770Z,71.20
2017-06-23T02:57:09.594Z,71.30
2017-06-23T02:59:38.286Z,71.30
2017-06-23T03:02:05.803Z,71.10
2017-06-23T03:04:33.769Z,70.90
2017-06-23T03:07:03.650Z,71.00
2017-06-23T03:09:31.242Z,71.00
2017-06-23T03:11:59.205Z,71.00
2017-06-23T03:14:27.618Z,71.00
2017-06-23T03:16:56.313Z,70.90
2017-06-23T03:19:23.789Z,70.90
2017-06-23T03:21:51.266Z,71.10
2017-06-23T03:24:18.761Z,71.20
2017-06-23T03:26:46.305Z,71.20
2017-06-23T03:29:14.274Z,71.40
2017-06-23T03:31:42.241Z,71.30
2017-06-23T03:34:11.242Z,71.40
2017-06-23T03:36:40.152Z,71.50
2017-06-23T03:39:08.091Z,71.50
2017-06-23T03:41:35.982Z,71.50
2017-06-23T03:44:03.458Z,71.50
2017-06-23T03:46:30.969Z,71.60
2017-06-23T03:48:58.854Z,71.60
2017-06-23T03:51:27.337Z,71.60
2017-06-23T03:53:54.813Z,71.60
2017-06-23T03:56:22.309Z,71.70
2017-06-23T03:58:49.889Z,71.50
2017-06-23T04:01:17.794Z,71.40
2017-06-23T04:03:45.309Z,71.40
2017-06-23T04:06:12.873Z,71.30
2017-06-23T04:08:40.841Z,71.40
2017-06-23T04:11:08.805Z,71.50
2017-06-23T04:13:37.282Z,71.50
2017-06-23T04:16:04.845Z,71.50
2017-06-23T04:18:32.717Z,71.50
2017-06-23T04:21:00.677Z,71.70
2017-06-23T04:23:28.645Z,71.50
2017-06-23T04:25:56.617Z,71.50
2017-06-23T04:28:25.424Z,71.80
2017-06-23T04:30:52.964Z,71.80
2017-06-23T04:33:21.765Z,71.70
2017-06-23T04:35:49.305Z,71.70
2017-06-23T04:38:18.955Z,71.80
2017-06-23T04:40:45.657Z,71.80
2017-06-23T04:43:14.458Z,71.80
2017-06-23T04:45:42.000Z,71.80
2017-06-23T04:48:10.821Z,71.90
2017-06-23T04:50:38.313Z,71.90
2017-06-23T04:53:05.805Z,71.80
2017-06-23T04:55:33.772Z,71.80
2017-06-23T04:58:01.680Z,71.90
2017-06-23T05:00:29.208Z,71.90
2017-06-23T05:02:58.018Z,71.80
2017-06-23T05:05:25.852Z,71.80
2017-06-23T05:07:53.817Z,71.80
2017-06-23T05:10:21.689Z,71.70
2017-06-23T05:12:49.586Z,71.80
2017-06-23T05:15:17.104Z,71.80
2017-06-23T05:17:44.669Z,71.70
2017-06-23T05:20:12.541Z,71.70
2017-06-23T05:22:40.705Z,71.60
2017-06-23T05:25:08.573Z,71.70
2017-06-23T05:27:36.112Z,71.70
2017-06-23T05:30:03.606Z,71.70
2017-06-23T05:32:31.140Z,71.60
2017-06-23T05:35:00.985Z,71.60
2017-06-23T05:37:28.513Z,71.60
2017-06-23T05:39:57.569Z,71.50
2017-06-23T05:42:25.050Z,71.50
2017-06-23T05:44:52.629Z,71.50
2017-06-23T05:47:22.445Z,71.50
2017-06-23T05:49:50.317Z,71.60
2017-06-23T05:52:18.269Z,71.80
2017-06-23T05:54:46.262Z,71.80
2017-06-23T05:57:14.105Z,71.80
2017-06-23T05:59:42.992Z,71.70
2017-06-23T06:02:10.861Z,71.40
2017-06-23T06:04:38.825Z,71.30
2017-06-23T06:07:06.696Z,71.20
2017-06-23T06:09:34.864Z,71.10
2017-06-23T06:12:02.735Z,71.10
2017-06-23T06:14:30.705Z,71.00
2017-06-23T06:16:58.677Z,70.90
2017-06-23T06:19:26.549Z,71.20
2017-06-23T06:21:55.328Z,71.20
2017-06-23T06:24:24.256Z,70.80
2017-06-23T06:26:51.775Z,70.80
2017-06-23T06:29:19.744Z,71.00
2017-06-23T06:31:47.634Z,70.80
2017-06-23T06:34:15.125Z,70.80
2017-06-23T06:36:43.517Z,70.50
2017-06-23T06:39:11.010Z,70.70
2017-06-23T06:41:39.889Z,70.90
2017-06-23T06:44:07.861Z,70.40
2017-06-23T06:46:35.825Z,70.40
2017-06-23T06:49:03.713Z,70.50
2017-06-23T06:51:31.251Z,70.50
2017-06-23T06:53:59.217Z,70.10
2017-06-23T06:56:27.289Z,70.30
2017-06-23T06:58:55.172Z,70.60
2017-06-23T07:01:22.673Z,70.60
2017-06-23T07:03:50.165Z,70.30
2017-06-23T07:06:17.731Z,70.00
2017-06-23T07:08:45.626Z,70.30
2017-06-23T07:11:13.101Z,70.30
2017-06-23T07:13:41.824Z,70.40
2017-06-23T07:16:09.297Z,70.40
2017-06-23T07:18:37.170Z,70.40
2017-06-23T07:21:05.067Z,70.40
2017-06-23T07:23:32.554Z,70.40
2017-06-23T07:26:00.037Z,70.20
2017-06-23T07:28:28.005Z,70.40
2017-06-23T07:30:55.564Z,70.40
2017-06-23T07:33:23.433Z,70.40
2017-06-23T07:35:52.214Z,70.30
2017-06-23T07:38:19.777Z,70.30
2017-06-23T07:40:47.750Z,70.30
2017-06-23T07:43:15.718Z,70.40
2017-06-23T07:45:45.561Z,70.50
2017-06-23T07:48:13.085Z,70.50
2017-06-23T07:50:40.994Z,70.70
2017-06-23T07:53:08.510Z,70.70
2017-06-23T07:55:36.398Z,70.80
2017-06-23T07:58:04.066Z,70.80
2017-06-23T08:00:31.597Z,70.60
2017-06-23T08:02:59.565Z,70.60
2017-06-23T08:05:27.533Z,70.60
2017-06-23T08:07:55.497Z,70.70
2017-06-23T08:10:23.388Z,70.70
2017-06-23T08:12:50.925Z,70.70
2017-06-23T08:15:18.817Z,70.70
2017-06-23T08:17:46.353Z,70.70
2017-06-23T08:20:16.182Z,70.70
2017-06-23T08:22:43.716Z,70.70
2017-06-23T08:25:11.208Z,70.70
2017-06-23T08:27:38.680Z,70.70
2017-06-23T08:30:08.157Z,70.80
2017-06-23T08:32:35.629Z,70.80
2017-06-23T08:35:03.124Z,70.70
2017-06-23T08:37:30.597Z,70.90
2017-06-23T08:39:58.165Z,70.90
2017-06-23T08:42:26.136Z,70.80
2017-06-23T08:44:54.033Z,70.80
2017-06-23T08:47:21.565Z,70.80
2017-06-23T08:49:49.533Z,70.80
2017-06-23T08:52:17.408Z,70.70
2017-06-23T08:54:45.885Z,70.70
2017-06-23T08:57:13.840Z,70.70
2017-06-23T08:59:41.753Z,70.60
2017-06-23T09:02:10.170Z,70.60
2017-06-23T09:04:37.665Z,70.60
2017-06-23T09:07:05.204Z,70.60
2017-06-23T09:09:32.764Z,70.70
2017-06-23T09:12:00.625Z,70.70
2017-06-23T09:14:28.189Z,70.70
2017-06-23T09:16:55.749Z,70.70
2017-06-23T09:19:23.637Z,70.70
2017-06-23T09:21:51.173Z,70.70
2017-06-23T09:24:19.128Z,70.70
2017-06-23T09:26:46.597Z,70.70
2017-06-23T09:29:14.485Z,70.60
2017-06-23T09:31:41.956Z,70.60
2017-06-23T09:34:09.478Z,70.20
2017-06-23T09:36:37.441Z,69.40
2017-06-23T09:39:05.611Z,69.20
2017-06-23T09:41:33.085Z,69.20
2017-06-23T09:44:01.043Z,68.90
2017-06-23T09:46:29.056Z,68.90
2017-06-23T09:48:58.556Z,68.90
2017-06-23T09:51:26.073Z,68.90
2017-06-23T09:53:54.037Z,68.90
2017-06-23T09:56:21.906Z,68.90
2017-06-23T09:58:49.789Z,68.80
2017-06-23T10:01:17.331Z,68.80
2017-06-23T10:03:45.545Z,68.90
2017-06-23T10:06:13.069Z,68.90
2017-06-23T10:08:41.028Z,69.10
2017-06-23T10:11:10.896Z,69.20
2017-06-23T10:13:38.397Z,69.20
2017-06-23T10:16:05.958Z,69.20
2017-06-23T10:18:33.825Z,69.40
2017-06-23T10:21:03.675Z,69.40
2017-06-23T10:23:31.238Z,69.40
2017-06-23T10:25:58.758Z,69.50
2017-06-23T10:28:26.646Z,69.50
2017-06-23T10:30:54.134Z,69.50
2017-06-23T10:33:21.633Z,69.60
2017-06-23T10:35:49.500Z,69.50
2017-06-23T10:38:16.993Z,69.50
2017-06-23T10:40:44.513Z,68.90
2017-06-23T10:43:14.358Z,67.90
2017-06-23T10:45:41.913Z,67.90
2017-06-23T10:48:09.440Z,68.10
2017-06-23T10:50:37.418Z,68.20
2017-06-23T10:53:05.586Z,68.50
2017-06-23T10:55:33.457Z,68.70
2017-06-23T10:58:02.281Z,68.60
2017-06-23T11:00:29.792Z,68.60
2017-06-23T11:02:57.769Z,68.50
2017-06-23T11:05:25.737Z,68.60
2017-06-23T11:07:53.721Z,68.60
2017-06-23T11:10:21.567Z,68.60
2017-06-23T11:12:49.436Z,68.50
2017-06-23T11:15:17.401Z,68.50
2017-06-23T11:17:45.289Z,68.60
2017-06-23T11:20:12.825Z,68.60
2017-06-23T11:22:42.665Z,68.50
2017-06-23T11:25:10.193Z,68.50
2017-06-23T11:27:37.957Z,68.40
2017-06-23T11:30:05.428Z,68.30
2017-06-23T11:32:33.400Z,68.40
2017-06-23T11:35:01.656Z,68.30
2017-06-23T11:37:29.525Z,68.30
2017-06-23T11:39:57.494Z,68.20
2017-06-23T11:42:25.360Z,68.20
2017-06-23T11:44:54.457Z,68.20
2017-06-23T11:47:22.440Z,68.10
2017-06-23T11:49:50.394Z,68.10
2017-06-23T11:52:18.353Z,68.20
2017-06-23T11:54:45.917Z,68.30
2017-06-23T11:57:13.801Z,68.70
2017-06-23T11:59:41.345Z,68.70
2017-06-23T12:02:10.437Z,68.50
2017-06-23T12:04:38.401Z,68.50
2017-06-23T12:07:06.326Z,68.60
2017-06-23T12:09:33.833Z,68.60
2017-06-23T12:12:01.705Z,68.60
2017-06-23T12:14:29.665Z,68.30
2017-06-23T12:16:58.449Z,68.20
2017-06-23T12:19:25.941Z,68.20
2017-06-23T12:21:53.417Z,68.20
2017-06-23T12:24:20.933Z,68.20
2017-06-23T12:26:48.892Z,68.10
2017-06-23T12:29:16.856Z,68.00
2017-06-23T12:31:44.745Z,68.00
2017-06-23T12:34:12.284Z,68.00
2017-06-23T12:36:40.173Z,68.00
2017-06-23T12:39:07.643Z,68.00
2017-06-23T12:41:35.514Z,68.10
2017-06-23T12:44:02.981Z,68.40
2017-06-23T12:46:30.489Z,68.40
2017-06-23T12:49:00.329Z,68.20
2017-06-23T12:51:27.860Z,68.20
2017-06-23T12:53:57.688Z,68.10
2017-06-23T12:56:25.224Z,68.10
2017-06-23T12:58:54.117Z,68.10
2017-06-23T13:01:22.086Z,67.90
2017-06-23T13:03:49.949Z,68.20
2017-06-23T13:06:18.123Z,68.50
2017-06-23T13:08:45.991Z,68.30
2017-06-23T13:11:13.853Z,68.30
2017-06-23T13:13:41.351Z,68.40
2017-06-23T13:16:08.872Z,68.40
2017-06-23T13:18:36.837Z,67.90
2017-06-23T13:21:04.399Z,68.00
2017-06-23T13:23:32.569Z,68.10
2017-06-23T13:26:00.444Z,68.00
2017-06-23T13:28:29.241Z,68.00
2017-06-23T13:30:56.789Z,68.00
2017-06-23T13:33:25.621Z,67.80
2017-06-23T13:35:53.129Z,67.80
2017-06-23T13:38:21.098Z,68.40
2017-06-23T13:40:49.273Z,68.40
2017-06-23T13:43:17.133Z,68.20
2017-06-23T13:45:44.693Z,68.20
2017-06-23T13:48:12.582Z,68.20
2017-06-23T13:50:40.119Z,68.20
2017-06-23T13:53:08.093Z,68.60
2017-06-23T13:55:36.876Z,68.40
2017-06-23T13:58:05.887Z,68.20
2017-06-23T14:00:33.429Z,68.20
2017-06-23T14:03:02.317Z,68.20
2017-06-23T14:05:30.285Z,68.50
2017-06-23T14:07:58.250Z,68.40
2017-06-23T14:10:25.747Z,68.40
2017-06-23T14:12:54.242Z,68.70
2017-06-23T14:15:21.753Z,68.60
2017-06-23T14:17:49.726Z,68.50
2017-06-23T14:20:17.589Z,68.50
2017-06-23T14:22:45.478Z,68.40
2017-06-23T14:25:13.005Z,68.40
2017-06-23T14:27:40.973Z,68.60
2017-06-23T14:30:08.850Z,68.70
2017-06-23T14:32:36.813Z,69.40
2017-06-23T14:35:04.782Z,69.10
2017-06-23T14:37:32.673Z,69.20
2017-06-23T14:40:00.201Z,69.20
2017-06-23T14:42:28.173Z,68.90
2017-06-23T14:44:56.041Z,68.80
2017-06-23T14:47:24.000Z,68.70
2017-06-23T14:49:51.873Z,69.00
2017-06-23T14:52:19.837Z,68.90
2017-06-23T14:54:47.745Z,68.90
2017-06-23T14:57:15.261Z,68.90
2017-06-23T14:59:43.133Z,68.90
2017-06-23T15:02:11.033Z,68.90
2017-06-23T15:04:38.553Z,68.90
2017-06-23T15:07:06.473Z,68.90
2017-06-23T15:09:33.936Z,68.90
2017-06-23T15:12:01.432Z,68.90
2017-06-23T15:14:29.418Z,68.90
2017-06-23T15:16:56.961Z,68.90
2017-06-23T15:19:24.829Z,69.00
2017-06-23T15:21:52.798Z,69.00
2017-06-23T15:24:20.758Z,69.00
2017-06-23T15:26:48.324Z,69.00
2017-06-23T15:29:16.290Z,68.90
2017-06-23T15:31:44.181Z,68.90
2017-06-23T15:34:11.663Z,68.90
2017-06-23T15:36:39.173Z,68.90
2017-06-23T15:39:07.137Z,69.00
2017-06-23T15:41:35.109Z,69.00
2017-06-23T15:44:03.079Z,69.00
2017-06-23T15:46:31.041Z,69.00
2017-06-23T15:48:58.909Z,69.00
2017-06-23T15:51:26.877Z,68.90
2017-06-23T15:53:54.845Z,68.80
2017-06-23T15:56:22.741Z,68.80
2017-06-23T15:58:52.177Z,68.80
2017-06-23T16:01:19.676Z,68.90
2017-06-23T16:03:47.641Z,69.00
2017-06-23T16:06:15.129Z,69.00
2017-06-23T16:08:42.605Z,68.90
2017-06-23T16:11:10.117Z,69.00
2017-06-23T16:13:37.997Z,69.00
2017-06-23T16:16:05.840Z,69.00
2017-06-23T16:18:33.710Z,69.20
2017-06-23T16:21:01.577Z,69.10
2017-06-23T16:23:29.549Z,69.20
2017-06-23T16:25:57.421Z,69.20
2017-06-23T16:28:25.309Z,69.30
2017-06-23T16:30:52.837Z,69.30
2017-06-23T16:33:22.678Z,69.20
2017-06-23T16:35:50.210Z,69.20
2017-06-23T16:38:18.981Z,69.30
2017-06-23T16:40:46.651Z,69.30
2017-06-23T16:43:14.597Z,68.60
2017-06-23T16:45:42.177Z,68.60
2017-06-23T16:48:10.992Z,69.00
2017-06-23T16:50:39.381Z,69.00
2017-06-23T16:53:06.905Z,68.40
2017-06-23T16:55:34.869Z,69.00
2017-06-23T16:58:03.690Z,69.20
2017-06-23T17:00:31.216Z,69.10
2017-06-23T17:02:59.107Z,69.10
2017-06-23T17:05:26.641Z,69.10
2017-06-23T17:07:54.814Z,69.20
2017-06-23T17:10:22.373Z,69.20
2017-06-23T17:12:50.342Z,69.70
2017-06-23T17:15:18.230Z,69.80
2017-06-23T17:17:45.765Z,69.80
2017-06-23T17:20:13.259Z,70.00
2017-06-23T17:22:40.786Z,69.70
2017-06-23T17:25:08.750Z,69.70
2017-06-23T17:27:36.722Z,69.70
2017-06-23T17:30:04.885Z,69.70
2017-06-23T17:32:33.325Z,69.70
2017-06-23T17:35:00.830Z,69.70
2017-06-23T17:37:28.796Z,69.90
2017-06-23T17:39:56.722Z,69.90
2017-06-23T17:42:25.137Z,69.90
2017-06-23T17:44:52.629Z,69.80
2017-06-23T17:47:20.129Z,69.10
2017-06-23T17:49:47.758Z,69.60
2017-06-23T17:52:15.250Z,69.60
2017-06-23T17:54:42.721Z,69.60
2017-06-23T17:57:10.309Z,69.80
2017-06-23T17:59:38.253Z,69.90
2017-06-23T18:02:05.746Z,69.90
2017-06-23T18:04:33.237Z,69.80
2017-06-23T18:07:00.712Z,69.40
2017-06-23T18:09:28.286Z,69.80
2017-06-23T18:11:56.253Z,69.90
2017-06-23T18:14:24.126Z,69.90
2017-06-23T18:16:52.461Z,69.90
2017-06-23T18:19:19.957Z,69.90
2017-06-23T18:21:48.130Z,70.00
2017-06-23T18:24:16.004Z,69.00
2017-06-23T18:26:43.873Z,69.90
2017-06-23T18:29:11.771Z,70.00
2017-06-23T18:31:39.256Z,70.00
2017-06-23T18:34:06.740Z,70.10
2017-06-23T18:36:34.225Z,70.10
2017-06-23T18:39:02.070Z,68.60
2017-06-23T18:41:30.853Z,69.10
2017-06-23T18:43:59.665Z,69.40
2017-06-23T18:46:27.197Z,69.40
2017-06-23T18:48:56.028Z,69.00
2017-06-23T18:51:24.464Z,69.00
2017-06-23T18:53:52.432Z,68.30
2017-06-23T18:56:20.605Z,66.90
2017-06-23T18:58:48.472Z,68.50
2017-06-23T19:01:16.340Z,69.70
2017-06-23T19:03:44.233Z,67.60
2017-06-23T19:06:11.765Z,67.60
2017-06-23T19:08:40.590Z,66.60
2017-06-23T19:11:08.110Z,66.60
2017-06-23T19:13:36.015Z,67.20
2017-06-23T19:16:03.534Z,67.20
2017-06-23T19:18:31.507Z,65.70
2017-06-23T19:20:59.677Z,65.30
2017-06-23T19:23:27.551Z,64.80
2017-06-23T19:25:55.421Z,64.60
2017-06-23T19:28:23.327Z,64.30
2017-06-23T19:30:51.756Z,64.30
2017-06-23T19:33:19.685Z,63.80
2017-06-23T19:35:47.193Z,63.80
2017-06-23T19:38:15.357Z,63.90
2017-06-23T19:40:43.245Z,63.90
2017-06-23T19:43:10.718Z,63.90
2017-06-23T19:45:39.041Z,63.70
2017-06-23T19:48:06.552Z,63.80
2017-06-23T19:50:34.068Z,63.70
2017-06-23T19:53:01.930Z,64.00
2017-06-23T19:55:29.497Z,64.00
2017-06-23T19:57:57.376Z,64.30
2017-06-23T20:00:24.876Z,64.30
2017-06-23T20:02:52.383Z,64.30
2017-06-23T20:05:20.274Z,64.50
2017-06-23T20:07:47.756Z,64.50
2017-06-23T20:10:15.238Z,64.50
2017-06-23T20:12:43.685Z,64.70
2017-06-23T20:15:11.187Z,64.90
2017-06-23T20:17:39.056Z,64.90
2017-06-23T20:20:06.989Z,65.10
2017-06-23T20:22:34.463Z,65.10
2017-06-23T20:25:01.953Z,65.00
2017-06-23T20:27:29.473Z,65.00
2017-06-23T20:29:57.057Z,65.00
2017-06-23T20:32:26.887Z,65.10
2017-06-23T20:34:54.385Z,65.10
2017-06-23T20:37:21.863Z,65.10
2017-06-23T20:39:49.352Z,65.30
2017-06-23T20:42:16.911Z,65.30
2017-06-23T20:44:45.555Z,65.30
2017-06-23T20:47:13.048Z,65.30
2017-06-23T20:49:40.939Z,65.50
2017-06-23T20:52:08.442Z,65.50
2017-06-23T20:54:35.933Z,65.60
2017-06-23T20:57:03.418Z,65.80
2017-06-23T20:59:30.907Z,65.90
2017-06-23T21:02:00.374Z,65.90
2017-06-23T21:04:27.867Z,66.00
2017-06-23T21:06:55.332Z,66.00
2017-06-23T21:09:22.851Z,66.10
2017-06-23T21:11:50.335Z,66.30
2017-06-23T21:14:18.132Z,66.30
2017-06-23T21:16:46.097Z,66.30
2017-06-23T21:19:14.966Z,66.50
2017-06-23T21:21:42.470Z,66.50
2017-06-23T21:24:09.955Z,66.40
2017-06-23T21:26:37.476Z,66.40
2017-06-23T21:29:04.959Z,66.40
2017-06-23T21:31:32.789Z,66.40
2017-06-23T21:34:00.695Z,66.40
2017-06-23T21:36:28.212Z,66.40
2017-06-23T21:38:56.182Z,66.50
2017-06-23T21:41:36.010Z,66.50
2017-06-23T21:44:03.501Z,66.50
2017-06-23T21:46:31.039Z,66.60
2017-06-23T21:48:59.827Z,66.60
2017-06-23T21:51:27.707Z,66.60
2017-06-23T21:53:55.195Z,66.60
2017-06-23T21:56:22.717Z,66.70
2017-06-23T21:58:50.276Z,66.80
2017-06-23T22:01:19.153Z,66.90
2017-06-23T22:03:48.052Z,66.90
2017-06-23T22:06:15.933Z,67.00
2017-06-23T22:08:43.440Z,67.00
2017-06-23T22:11:11.881Z,67.00
2017-06-23T22:13:40.477Z,67.00
2017-06-23T22:16:08.871Z,67.10
2017-06-23T22:18:36.372Z,67.20
2017-06-23T22:21:04.364Z,67.30
2017-06-23T22:23:31.857Z,67.30
2017-06-23T22:25:59.351Z,67.40
2017-06-23T22:28:27.214Z,67.50
2017-06-23T22:30:55.433Z,67.60
2017-06-23T22:33:22.949Z,67.60
2017-06-23T22:35:50.446Z,67.70
2017-06-23T22:38:17.941Z,67.80
2017-06-23T22:40:45.456Z,67.90
2017-06-23T22:43:12.959Z,68.10
2017-06-23T22:45:40.444Z,68.00
2017-06-23T22:48:08.292Z,68.00
2017-06-23T22:50:36.165Z,68.10
2017-06-23T22:53:04.118Z,68.10
2017-06-23T22:55:32.022Z,68.10
2017-06-23T22:58:00.497Z,68.10
2017-06-23T23:00:27.988Z,68.30
2017-06-23T23:02:55.485Z,68.40
2017-06-23T23:05:23.672Z,68.40
2017-06-23T23:07:51.157Z,68.40
2017-06-23T23:10:19.593Z,68.50
2017-06-23T23:12:47.857Z,68.70
2017-06-23T23:15:15.444Z,68.70
2017-06-23T23:17:43.333Z,68.80
2017-06-23T23:20:11.174Z,68.80
2017-06-23T23:22:39.129Z,68.90
2017-06-23T23:25:07.924Z,68.90
2017-06-23T23:27:36.098Z,69.00
2017-06-23T23:30:04.065Z,69.20
2017-06-23T23:32:32.033Z,69.20
2017-06-23T23:35:00.201Z,69.40
2017-06-23T23:37:28.961Z,69.60
2017-06-23T23:39:56.437Z,69.60
2017-06-23T23:42:23.998Z,69.60
2017-06-23T23:44:51.965Z,69.60
2017-06-23T23:47:20.753Z,69.50
2017-06-23T23:49:48.720Z,69.60
2017-06-23T23:52:16.227Z,69.70
2017-06-23T23:54:43.737Z,69.70
2017-06-23T23:57:11.620Z,69.70
2017-06-23T23:59:39.160Z,69.70
